createdAt,value
2023-01-22T00:01:46.583Z,22.58
2023-01-22T00:06:04.150Z,18.83
2023-01-22T00:10:21.218Z,20.50
2023-01-22T00:14:38.496Z,19.30
2023-01-22T00:18:55.605Z,19.20
2023-01-22T00:23:12.667Z,20.70
2023-01-22T00:27:29.759Z,18.17
2023-01-22T00:31:46.918Z,23.13
2023-01-22T00:36:09.686Z,21.95
2023-01-22T00:40:26.883Z,18.77
2023-01-22T00:44:44.016Z,17.65
2023-01-22T00:49:03.501Z,17.65
2023-01-22T00:53:20.646Z,19.27
2023-01-22T00:57:37.707Z,19.08
2023-01-22T01:01:54.837Z,19.70
2023-01-22T01:06:20.142Z,23.40
2023-01-22T01:10:37.252Z,19.02
2023-01-22T01:14:56.360Z,19.15
2023-01-22T01:19:13.484Z,20.20
2023-01-22T01:23:30.998Z,17.30
2023-01-22T01:27:48.195Z,22.70
2023-01-22T01:32:05.314Z,23.30
2023-01-22T01:36:46.797Z,20.70
2023-01-22T01:41:01.829Z,24.25
2023-01-22T01:45:32.141Z,26.85
2023-01-22T01:49:52.642Z,29.88
2023-01-22T01:54:11.402Z,27.70
2023-01-22T01:58:31.848Z,25.92
2023-01-22T02:02:49.226Z,30.90
2023-01-22T02:07:06.791Z,28.13
2023-01-22T02:11:24.849Z,27.20
2023-01-22T02:15:42.803Z,33.38
2023-01-22T02:19:59.838Z,41.97
2023-01-22T02:24:17.260Z,36.47
2023-01-22T02:28:34.340Z,30.07
2023-01-22T02:32:51.531Z,27.55
2023-01-22T02:37:09.128Z,29.88
2023-01-22T02:41:27.083Z,37.08
2023-01-22T02:45:44.268Z,39.90
2023-01-22T02:50:01.605Z,32.63
2023-01-22T02:54:18.789Z,33.63
2023-01-22T02:58:36.250Z,35.08
2023-01-22T03:02:53.324Z,31.67
2023-01-22T03:07:10.392Z,35.80
2023-01-22T03:11:30.263Z,35.67
2023-01-22T03:16:06.283Z,35.28
2023-01-22T03:20:42.207Z,29.63
2023-01-22T03:25:01.257Z,30.52
2023-01-22T03:29:18.432Z,30.75
2023-01-22T03:33:36.437Z,34.13
2023-01-22T03:37:53.558Z,33.55
2023-01-22T03:42:10.613Z,38.88
2023-01-22T03:46:28.075Z,35.65
2023-01-22T03:50:45.135Z,30.40
2023-01-22T03:55:02.235Z,25.80
2023-01-22T03:59:19.381Z,29.67
2023-01-22T04:03:37.108Z,27.85
2023-01-22T04:07:54.163Z,30.98
2023-01-22T04:12:11.233Z,40.88
2023-01-22T04:16:28.438Z,34.80
2023-01-22T04:20:47.615Z,35.58
2023-01-22T04:25:05.095Z,32.05
2023-01-22T04:29:22.158Z,36.70
2023-01-22T04:33:39.326Z,30.83
2023-01-22T04:37:56.910Z,33.30
2023-01-22T04:42:14.026Z,33.83
2023-01-22T04:46:31.588Z,36.22
2023-01-22T04:50:48.732Z,32.90
2023-01-22T04:55:06.564Z,29.58
2023-01-22T04:59:23.651Z,38.17
2023-01-22T05:03:40.804Z,28.05
2023-01-22T05:07:58.046Z,33.30
2023-01-22T05:12:15.256Z,29.27
2023-01-22T05:16:32.481Z,33.83
2023-01-22T05:20:49.578Z,30.90
2023-01-22T05:25:07.165Z,28.38
2023-01-22T05:29:26.052Z,27.37
2023-01-22T05:33:44.253Z,25.52
2023-01-22T05:42:18.321Z,34.28
2023-01-22T05:46:35.522Z,35.95
2023-01-22T05:50:52.702Z,36.90
2023-01-22T05:55:09.926Z,35.80
2023-01-22T05:59:27.154Z,34.38
2023-01-22T06:03:44.577Z,31.30
2023-01-22T06:08:01.733Z,34.50
2023-01-22T06:12:18.799Z,33.88
2023-01-22T06:16:35.889Z,31.05
2023-01-22T06:20:57.583Z,37.55
2023-01-22T06:25:14.694Z,32.63
2023-01-22T06:29:31.966Z,34.60
2023-01-22T06:33:49.080Z,36.28
2023-01-22T06:38:06.314Z,37.70
2023-01-22T06:42:23.439Z,36.33
2023-01-22T06:46:40.645Z,41.90
2023-01-22T06:50:59.001Z,41.00
2023-01-22T06:55:16.075Z,50.97
2023-01-22T06:59:33.200Z,54.17
2023-01-22T07:03:50.396Z,45.65
2023-01-22T07:08:13.107Z,43.47
2023-01-22T07:12:30.271Z,49.17
2023-01-22T07:16:47.324Z,66.60
2023-01-22T07:21:05.856Z,53.67
2023-01-22T07:25:22.937Z,38.03
2023-01-22T07:29:40.850Z,54.80
2023-01-22T07:34:00.798Z,54.00
2023-01-22T07:38:47.576Z,52.97
2023-01-22T07:43:19.951Z,51.45
2023-01-22T07:47:41.432Z,41.47
2023-01-22T07:52:05.009Z,90.88
2023-01-22T07:56:54.395Z,57.08
2023-01-22T08:01:13.802Z,69.50
2023-01-22T08:05:30.928Z,62.45
2023-01-22T08:09:48.080Z,50.13
2023-01-22T08:14:05.142Z,60.65
2023-01-22T08:18:28.261Z,45.78
2023-01-22T08:22:48.809Z,42.88
2023-01-22T08:27:05.840Z,47.55
2023-01-22T08:31:28.388Z,66.45
2023-01-22T08:35:45.744Z,73.82
2023-01-22T08:40:04.344Z,76.53
2023-01-22T08:44:21.423Z,48.55
2023-01-22T08:48:39.670Z,141.32
2023-01-22T08:57:14.636Z,49.40
2023-01-22T09:01:32.473Z,52.15
2023-01-22T09:05:51.004Z,32.30
2023-01-22T09:10:12.177Z,41.95
2023-01-22T09:14:29.516Z,28.10
2023-01-22T09:18:46.585Z,38.35
2023-01-22T09:23:03.634Z,27.40
2023-01-22T09:27:20.720Z,32.17
2023-01-22T09:31:37.872Z,33.50
2023-01-22T09:35:54.953Z,31.33
2023-01-22T09:40:36.345Z,28.42
2023-01-22T09:44:59.721Z,27.52
2023-01-22T09:49:19.957Z,23.63
2023-01-22T09:53:37.080Z,29.17
2023-01-22T09:57:55.970Z,26.77
2023-01-22T10:02:36.404Z,24.35
2023-01-22T10:06:57.711Z,19.52
2023-01-22T10:11:14.811Z,20.85
2023-01-22T10:15:32.915Z,23.15
2023-01-22T10:19:58.488Z,23.70
2023-01-22T10:24:15.678Z,21.48
2023-01-22T10:28:32.860Z,23.95
2023-01-22T10:33:04.269Z,28.27
2023-01-22T10:37:21.353Z,29.73
2023-01-22T10:41:39.307Z,26.00
2023-01-22T10:46:03.265Z,29.25
2023-01-22T10:50:24.311Z,43.17
2023-01-22T10:54:43.954Z,42.55
2023-01-22T10:59:26.662Z,42.17
2023-01-22T11:03:44.293Z,41.22
2023-01-22T11:08:07.654Z,48.80
2023-01-22T11:12:33.166Z,39.38
2023-01-22T11:16:54.277Z,40.10
2023-01-22T11:21:26.850Z,33.35
2023-01-22T11:26:41.552Z,33.97
2023-01-22T11:31:13.873Z,37.13
2023-01-22T11:35:50.866Z,41.17
2023-01-22T11:40:21.955Z,68.68
2023-01-22T11:45:09.053Z,43.47
2023-01-22T11:49:52.904Z,45.75
2023-01-22T11:54:33.112Z,50.47
2023-01-22T11:59:32.721Z,41.53
2023-01-22T12:04:15.902Z,39.53
2023-01-22T12:08:47.762Z,52.13
2023-01-22T12:13:38.327Z,38.97
2023-01-22T12:17:58.491Z,47.22
2023-01-22T12:22:37.449Z,35.15
2023-01-22T12:27:05.397Z,45.03
2023-01-22T12:31:53.895Z,35.43
2023-01-22T12:36:16.454Z,44.80
2023-01-22T12:40:52.601Z,37.90
2023-01-22T12:45:31.805Z,37.42
2023-01-22T12:49:51.514Z,42.83
2023-01-22T12:54:27.341Z,39.83
2023-01-22T12:58:55.454Z,36.78
2023-01-22T13:03:32.871Z,48.88
2023-01-22T13:08:16.311Z,40.95
2023-01-22T13:12:45.384Z,44.42
2023-01-22T13:17:16.764Z,42.17
2023-01-22T13:21:34.365Z,46.90
2023-01-22T13:25:55.905Z,45.17
2023-01-22T13:30:17.969Z,52.20
2023-01-22T13:34:35.292Z,55.90
2023-01-22T13:38:54.903Z,56.17
2023-01-22T13:43:18.233Z,60.58
2023-01-22T13:47:36.011Z,64.88
2023-01-22T13:51:54.145Z,87.90
2023-01-22T14:00:36.645Z,83.65
2023-01-22T14:04:53.841Z,91.25
2023-01-22T14:09:11.115Z,64.68
2023-01-22T14:13:39.891Z,66.10
2023-01-22T14:18:16.111Z,61.63
2023-01-22T14:22:33.227Z,54.47
2023-01-22T14:26:50.325Z,45.88
2023-01-22T14:31:07.601Z,48.22
2023-01-22T14:35:26.579Z,50.28
2023-01-22T14:39:43.718Z,51.30
2023-01-22T14:44:04.006Z,50.63
2023-01-22T14:48:21.343Z,50.13
2023-01-22T14:52:38.468Z,47.00
2023-01-22T14:56:56.451Z,55.10
2023-01-22T15:01:15.996Z,66.45
2023-01-22T15:05:35.486Z,61.47
2023-01-22T15:09:52.835Z,52.35
2023-01-22T15:14:10.191Z,53.05
2023-01-22T15:22:45.727Z,51.22
2023-01-22T15:27:02.978Z,49.47
2023-01-22T15:31:20.258Z,53.65
2023-01-22T15:35:37.432Z,60.85
2023-01-22T15:39:54.527Z,68.85
2023-01-22T15:44:13.467Z,61.53
2023-01-22T15:48:30.607Z,63.30
2023-01-22T15:52:47.812Z,70.78
2023-01-22T15:57:04.880Z,74.25
2023-01-22T16:01:22.441Z,141.55
2023-01-22T16:05:39.570Z,130.73
2023-01-22T16:09:56.668Z,119.53
2023-01-22T16:14:13.789Z,119.70
2023-01-22T16:18:35.296Z,83.43
2023-01-22T16:22:52.787Z,93.00
2023-01-22T16:27:09.989Z,102.43
2023-01-22T16:31:30.527Z,78.13
2023-01-22T16:35:47.933Z,79.80
2023-01-22T16:40:07.463Z,80.82
2023-01-22T16:44:26.419Z,75.15
2023-01-22T16:48:44.109Z,74.57
2023-01-22T16:53:01.341Z,88.28
2023-01-22T16:57:20.104Z,78.25
2023-01-22T17:01:40.870Z,81.35
2023-01-22T17:05:59.362Z,69.55
2023-01-22T17:10:17.271Z,81.20
2023-01-22T17:14:36.375Z,80.07
2023-01-22T17:18:55.132Z,81.63
2023-01-22T17:23:12.425Z,76.80
2023-01-22T17:27:31.583Z,74.80
2023-01-22T17:31:49.025Z,83.65
2023-01-22T17:36:06.878Z,63.63
2023-01-22T17:40:25.179Z,64.82
2023-01-22T17:49:01.128Z,41.75
2023-01-22T17:53:18.205Z,49.92
2023-01-22T17:57:35.271Z,60.90
2023-01-22T18:01:52.415Z,49.33
2023-01-22T18:06:10.499Z,45.38
2023-01-22T18:10:28.214Z,41.05
2023-01-22T18:14:45.317Z,51.28
2023-01-22T18:19:05.412Z,56.35
2023-01-22T18:23:22.754Z,43.72
2023-01-22T18:27:39.843Z,44.40
2023-01-22T18:31:57.123Z,42.80
2023-01-22T18:36:16.969Z,36.33
2023-01-22T18:40:34.054Z,38.83
2023-01-22T18:44:51.115Z,42.08
2023-01-22T18:49:19.060Z,49.40
2023-01-22T18:53:37.393Z,46.97
2023-01-22T18:57:56.956Z,44.75
2023-01-22T19:02:17.356Z,45.85
2023-01-22T19:06:37.374Z,51.45
2023-01-22T19:10:54.503Z,50.10
2023-01-22T19:15:12.719Z,32.25
2023-01-22T19:23:53.189Z,36.47
2023-01-22T19:28:10.286Z,42.63
2023-01-22T19:32:28.630Z,46.33
2023-01-22T19:41:03.749Z,40.83
2023-01-22T19:49:38.387Z,39.95
2023-01-22T19:53:55.437Z,37.35
2023-01-22T19:58:12.492Z,39.58
2023-01-22T20:02:29.587Z,43.92
2023-01-22T20:06:50.839Z,38.67
2023-01-22T20:11:09.976Z,48.55
2023-01-22T20:15:27.044Z,57.53
2023-01-22T20:19:44.179Z,38.47
2023-01-22T20:24:01.326Z,41.85
2023-01-22T20:28:19.528Z,34.17
2023-01-22T20:36:53.563Z,44.40
2023-01-22T20:41:10.923Z,48.10
2023-01-22T20:45:28.055Z,37.00
2023-01-22T20:49:45.220Z,40.97
2023-01-22T20:54:02.949Z,35.65
2023-01-22T20:58:20.089Z,40.92
2023-01-22T21:02:37.197Z,38.63
2023-01-22T21:06:54.439Z,40.65
2023-01-22T21:11:14.004Z,34.08
2023-01-22T21:15:33.479Z,38.33
2023-01-22T21:19:51.615Z,34.67
2023-01-22T21:24:08.770Z,34.83
2023-01-22T21:28:25.870Z,34.85
2023-01-22T21:32:43.145Z,37.40
2023-01-22T21:37:00.299Z,30.33
2023-01-22T21:41:18.554Z,38.78
2023-01-22T21:50:14.507Z,28.65
2023-01-22T21:54:37.253Z,40.67
2023-01-22T21:58:55.963Z,34.60
2023-01-22T22:03:13.030Z,35.00
2023-01-22T22:07:30.145Z,30.40
2023-01-22T22:11:47.677Z,32.08
2023-01-22T22:16:07.272Z,23.63
2023-01-22T22:20:24.366Z,27.33
2023-01-22T22:24:42.762Z,32.03
2023-01-22T22:28:59.979Z,30.08
2023-01-22T22:33:17.584Z,30.95
2023-01-22T22:37:34.884Z,32.85
2023-01-22T22:41:51.948Z,26.20
2023-01-22T22:46:15.441Z,33.33
2023-01-22T22:50:32.700Z,32.67
2023-01-22T22:54:49.839Z,27.00
2023-01-22T22:59:07.107Z,38.17
2023-01-22T23:03:24.792Z,32.50
2023-01-22T23:07:42.346Z,32.17
2023-01-22T23:11:59.476Z,27.90
2023-01-22T23:16:19.817Z,36.50
2023-01-22T23:20:37.011Z,29.83
2023-01-22T23:24:54.155Z,36.78
2023-01-22T23:29:13.653Z,28.65
2023-01-22T23:33:30.946Z,46.28
2023-01-22T23:37:48.335Z,42.50
2023-01-22T23:42:05.434Z,34.00
2023-01-22T23:46:25.356Z,34.63
2023-01-22T23:50:46.039Z,59.05
2023-01-22T23:55:03.675Z,39.35
2023-01-22T23:59:23.401Z,48.80
